sensor_id;sensor_type;location;lat;lon;timestamp;pressure;altitude;pressure_sealevel;temperature;humidity
14204;BME280;7185;51.854;6.622;2024-02-04T00:00:54;101937.88;;;15.87;75.57
14204;BME280;7185;51.854;6.622;2024-02-04T00:03:25;101941.56;;;16.25;74.11
14204;BME280;7185;51.854;6.622;2024-02-04T00:05:58;101935.16;;;15.91;75.38
14204;BME280;7185;51.854;6.622;2024-02-04T00:08:30;101919.22;;;15.96;75.47
14204;BME280;7185;51.854;6.622;2024-02-04T00:11:02;101929.75;;;15.98;75.85
14204;BME280;7185;51.854;6.622;2024-02-04T00:13:35;101927.53;;;15.74;76.50
14204;BME280;7185;51.854;6.622;2024-02-04T00:16:06;101930.44;;;16.09;75.14
14204;BME280;7185;51.854;6.622;2024-02-04T00:18:39;101930.88;;;15.84;76.27
14204;BME280;7185;51.854;6.622;2024-02-04T00:21:12;101925.47;;;15.90;75.91
14204;BME280;7185;51.854;6.622;2024-02-04T00:23:43;101935.66;;;15.64;77.45
14204;BME280;7185;51.854;6.622;2024-02-04T00:26:15;101934.09;;;16.00;75.72
14204;BME280;7185;51.854;6.622;2024-02-04T00:28:47;101933.97;;;16.08;75.36
14204;BME280;7185;51.854;6.622;2024-02-04T00:31:19;101935.38;;;15.79;76.32
14204;BME280;7185;51.854;6.622;2024-02-04T00:33:50;101935.25;;;15.88;76.34
14204;BME280;7185;51.854;6.622;2024-02-04T00:36:23;101934.09;;;16.02;75.58
14204;BME280;7185;51.854;6.622;2024-02-04T00:38:55;101940.44;;;15.91;76.30
14204;BME280;7185;51.854;6.622;2024-02-04T00:41:27;101941.03;;;15.57;77.70
14204;BME280;7185;51.854;6.622;2024-02-04T00:43:58;101936.88;;;15.96;76.34
14204;BME280;7185;51.854;6.622;2024-02-04T00:46:30;101940.69;;;15.76;77.29
14204;BME280;7185;51.854;6.622;2024-02-04T00:49:02;101938.19;;;15.70;77.49
14204;BME280;7185;51.854;6.622;2024-02-04T00:51:35;101943.72;;;15.54;77.76
14204;BME280;7185;51.854;6.622;2024-02-04T00:54:07;101934.91;;;15.57;77.83
14204;BME280;7185;51.854;6.622;2024-02-04T00:56:38;101937.56;;;15.55;78.64
14204;BME280;7185;51.854;6.622;2024-02-04T00:59:10;101937.16;;;15.77;77.36
14204;BME280;7185;51.854;6.622;2024-02-04T01:01:42;101942.31;;;15.35;78.90
14204;BME280;7185;51.854;6.622;2024-02-04T01:04:14;101933.91;;;15.62;77.82
14204;BME280;7185;51.854;6.622;2024-02-04T01:06:47;101937.84;;;15.90;76.62
14204;BME280;7185;51.854;6.622;2024-02-04T01:09:19;101932.06;;;15.66;77.60
14204;BME280;7185;51.854;6.622;2024-02-04T01:11:50;101940.63;;;15.82;76.98
14204;BME280;7185;51.854;6.622;2024-02-04T01:14:23;101939.41;;;15.50;78.68
14204;BME280;7185;51.854;6.622;2024-02-04T01:16:55;101942.78;;;15.58;77.67
14204;BME280;7185;51.854;6.622;2024-02-04T01:19:27;101944.09;;;15.86;76.27
14204;BME280;7185;51.854;6.622;2024-02-04T01:22:00;101941.72;;;15.69;77.49
14204;BME280;7185;51.854;6.622;2024-02-04T01:24:31;101953.53;;;15.49;78.46
14204;BME280;7185;51.854;6.622;2024-02-04T01:27:03;101951.63;;;15.57;78.12
14204;BME280;7185;51.854;6.622;2024-02-04T01:29:35;101959.22;;;15.24;79.96
14204;BME280;7185;51.854;6.622;2024-02-04T01:32:07;101945.47;;;15.55;78.51
14204;BME280;7185;51.854;6.622;2024-02-04T01:34:38;101946.69;;;15.36;79.36
14204;BME280;7185;51.854;6.622;2024-02-04T01:37:11;101948.81;;;15.12;81.43
14204;BME280;7185;51.854;6.622;2024-02-04T01:39:43;101952.22;;;15.20;80.18
14204;BME280;7185;51.854;6.622;2024-02-04T01:42:15;101943.75;;;15.00;81.69
14204;BME280;7185;51.854;6.622;2024-02-04T01:44:47;101940.38;;;15.44;79.89
14204;BME280;7185;51.854;6.622;2024-02-04T01:47:19;101929.88;;;15.41;78.70
14204;BME280;7185;51.854;6.622;2024-02-04T01:49:51;101931.47;;;15.50;79.15
14204;BME280;7185;51.854;6.622;2024-02-04T01:52:24;101930.63;;;15.48;78.91
14204;BME280;7185;51.854;6.622;2024-02-04T01:54:56;101929.09;;;15.36;78.95
14204;BME280;7185;51.854;6.622;2024-02-04T01:57:30;101922.31;;;15.71;77.29
14204;BME280;7185;51.854;6.622;2024-02-04T02:00:03;101933.31;;;15.46;78.24
14204;BME280;7185;51.854;6.622;2024-02-04T02:02:39;101939.06;;;15.19;79.61
14204;BME280;7185;51.854;6.622;2024-02-04T02:05:11;101936.81;;;15.47;78.22
14204;BME280;7185;51.854;6.622;2024-02-04T02:07:44;101942.59;;;15.69;77.74
14204;BME280;7185;51.854;6.622;2024-02-04T02:10:18;101944.47;;;15.62;77.54
14204;BME280;7185;51.854;6.622;2024-02-04T02:12:54;101936.91;;;15.41;77.94
14204;BME280;7185;51.854;6.622;2024-02-04T02:15:30;101938.25;;;15.67;77.23
14204;BME280;7185;51.854;6.622;2024-02-04T02:18:10;101942.84;;;15.55;78.31
14204;BME280;7185;51.854;6.622;2024-02-04T02:21:00;101941.38;;;15.89;76.23
14204;BME280;7185;51.854;6.622;2024-02-04T02:23:43;101929.69;;;16.01;75.57
14204;BME280;7185;51.854;6.622;2024-02-04T02:26:21;101937.28;;;15.71;76.94
14204;BME280;7185;51.854;6.622;2024-02-04T02:28:53;101932.00;;;15.71;76.73
14204;BME280;7185;51.854;6.622;2024-02-04T02:31:25;101932.75;;;15.77;76.53
14204;BME280;7185;51.854;6.622;2024-02-04T02:33:57;101935.97;;;15.45;77.20
14204;BME280;7185;51.854;6.622;2024-02-04T02:36:32;101924.69;;;15.35;78.21
14204;BME280;7185;51.854;6.622;2024-02-04T02:39:09;101932.28;;;15.54;77.27
14204;BME280;7185;51.854;6.622;2024-02-04T02:41:47;101924.13;;;15.66;76.38
14204;BME280;7185;51.854;6.622;2024-02-04T02:44:20;101927.16;;;15.46;77.37
14204;BME280;7185;51.854;6.622;2024-02-04T02:46:54;101930.94;;;15.29;77.94
14204;BME280;7185;51.854;6.622;2024-02-04T02:49:27;101931.47;;;15.50;76.84
14204;BME280;7185;51.854;6.622;2024-02-04T02:51:59;101931.38;;;15.56;76.37
14204;BME280;7185;51.854;6.622;2024-02-04T02:54:31;101925.66;;;15.29;77.61
14204;BME280;7185;51.854;6.622;2024-02-04T02:57:04;101925.25;;;15.53;76.40
14204;BME280;7185;51.854;6.622;2024-02-04T02:59:36;101925.00;;;15.68;75.63
14204;BME280;7185;51.854;6.622;2024-02-04T03:02:08;101924.63;;;15.38;76.69
14204;BME280;7185;51.854;6.622;2024-02-04T03:04:41;101916.28;;;15.61;75.49
14204;BME280;7185;51.854;6.622;2024-02-04T03:07:13;101909.28;;;15.60;75.81
14204;BME280;7185;51.854;6.622;2024-02-04T03:09:45;101902.56;;;15.42;75.75
14204;BME280;7185;51.854;6.622;2024-02-04T03:12:18;101903.38;;;15.44;75.67
14204;BME280;7185;51.854;6.622;2024-02-04T03:14:50;101912.69;;;15.66;74.98
14204;BME280;7185;51.854;6.622;2024-02-04T03:17:21;101904.19;;;15.48;75.17
14204;BME280;7185;51.854;6.622;2024-02-04T03:19:53;101903.75;;;15.73;74.46
14204;BME280;7185;51.854;6.622;2024-02-04T03:22:25;101896.63;;;15.28;76.09
14204;BME280;7185;51.854;6.622;2024-02-04T03:24:57;101895.25;;;15.57;74.84
14204;BME280;7185;51.854;6.622;2024-02-04T03:27:30;101883.88;;;15.53;74.88
14204;BME280;7185;51.854;6.622;2024-02-04T03:30:02;101887.81;;;15.27;76.43
14204;BME280;7185;51.854;6.622;2024-02-04T03:32:33;101879.47;;;15.52;75.33
14204;BME280;7185;51.854;6.622;2024-02-04T03:35:05;101886.53;;;15.50;74.75
14204;BME280;7185;51.854;6.622;2024-02-04T03:37:37;101883.59;;;15.67;74.42
14204;BME280;7185;51.854;6.622;2024-02-04T03:40:10;101897.81;;;15.60;74.17
14204;BME280;7185;51.854;6.622;2024-02-04T03:42:44;101905.44;;;15.77;73.96
14204;BME280;7185;51.854;6.622;2024-02-04T03:45:16;101904.25;;;15.45;75.10
14204;BME280;7185;51.854;6.622;2024-02-04T03:47:47;101912.81;;;15.59;74.70
14204;BME280;7185;51.854;6.622;2024-02-04T03:50:19;101907.28;;;15.72;74.12
14204;BME280;7185;51.854;6.622;2024-02-04T03:52:51;101893.19;;;15.73;74.41
14204;BME280;7185;51.854;6.622;2024-02-04T03:55:23;101888.66;;;15.78;74.44
14204;BME280;7185;51.854;6.622;2024-02-04T03:57:57;101898.50;;;15.70;74.79
14204;BME280;7185;51.854;6.622;2024-02-04T04:00:29;101901.09;;;15.24;76.75
14204;BME280;7185;51.854;6.622;2024-02-04T04:03:01;101903.38;;;15.46;76.20
14204;BME280;7185;51.854;6.622;2024-02-04T04:05:33;101900.09;;;14.75;79.51
14204;BME280;7185;51.854;6.622;2024-02-04T04:08:05;101897.75;;;15.13;78.20
14204;BME280;7185;51.854;6.622;2024-02-04T04:10:37;101905.53;;;15.22;77.82
14204;BME280;7185;51.854;6.622;2024-02-04T04:13:10;101907.78;;;16.38;72.00
14204;BME280;7185;51.854;6.622;2024-02-04T04:15:42;101917.81;;;16.63;71.17
14204;BME280;7185;51.854;6.622;2024-02-04T04:18:13;101932.00;;;16.99;68.98
14204;BME280;7185;51.854;6.622;2024-02-04T04:20:45;101929.28;;;15.25;76.64
14204;BME280;7185;51.854;6.622;2024-02-04T04:23:17;101925.09;;;15.10;77.65
14204;BME280;7185;51.854;6.622;2024-02-04T04:25:49;101922.94;;;14.78;78.88
14204;BME280;7185;51.854;6.622;2024-02-04T04:28:22;101928.69;;;15.05;78.14
14204;BME280;7185;51.854;6.622;2024-02-04T04:30:53;101928.41;;;15.23;77.15
14204;BME280;7185;51.854;6.622;2024-02-04T04:33:26;101924.75;;;15.32;76.31
14204;BME280;7185;51.854;6.622;2024-02-04T04:35:57;101926.81;;;15.13;76.30
14204;BME280;7185;51.854;6.622;2024-02-04T04:38:29;101922.50;;;15.06;75.07
14204;BME280;7185;51.854;6.622;2024-02-04T04:41:01;101923.03;;;15.29;73.71
14204;BME280;7185;51.854;6.622;2024-02-04T04:43:36;101921.63;;;15.07;74.01
14204;BME280;7185;51.854;6.622;2024-02-04T04:46:08;101919.59;;;14.66;74.39
14204;BME280;7185;51.854;6.622;2024-02-04T04:48:40;101899.94;;;14.86;73.60
14204;BME280;7185;51.854;6.622;2024-02-04T04:51:14;101901.66;;;14.90;73.53
14204;BME280;7185;51.854;6.622;2024-02-04T04:53:46;101909.69;;;15.36;71.99
14204;BME280;7185;51.854;6.622;2024-02-04T04:56:18;101901.38;;;15.06;72.68
14204;BME280;7185;51.854;6.622;2024-02-04T04:58:51;101908.31;;;15.13;72.68
14204;BME280;7185;51.854;6.622;2024-02-04T05:01:23;101905.75;;;15.08;72.38
14204;BME280;7185;51.854;6.622;2024-02-04T05:03:55;101907.66;;;15.53;71.21
14204;BME280;7185;51.854;6.622;2024-02-04T05:06:27;101897.97;;;15.52;71.03
14204;BME280;7185;51.854;6.622;2024-02-04T05:08:58;101893.50;;;15.56;70.90
14204;BME280;7185;51.854;6.622;2024-02-04T05:11:30;101883.91;;;15.50;71.11
14204;BME280;7185;51.854;6.622;2024-02-04T05:14:03;101904.56;;;15.26;71.73
14204;BME280;7185;51.854;6.622;2024-02-04T05:16:35;101887.75;;;15.32;72.04
14204;BME280;7185;51.854;6.622;2024-02-04T05:19:07;101883.50;;;15.23;72.72
14204;BME280;7185;51.854;6.622;2024-02-04T05:21:38;101889.75;;;15.18;72.83
14204;BME280;7185;51.854;6.622;2024-02-04T05:24:10;101878.31;;;15.17;72.68
14204;BME280;7185;51.854;6.622;2024-02-04T05:26:42;101885.81;;;15.42;71.89
14204;BME280;7185;51.854;6.622;2024-02-04T05:29:15;101867.97;;;15.55;71.34
14204;BME280;7185;51.854;6.622;2024-02-04T05:31:47;101861.56;;;15.67;71.31
14204;BME280;7185;51.854;6.622;2024-02-04T05:34:18;101860.34;;;15.38;72.16
14204;BME280;7185;51.854;6.622;2024-02-04T05:36:50;101859.66;;;15.26;72.93
14204;BME280;7185;51.854;6.622;2024-02-04T05:39:22;101862.81;;;15.47;71.70
14204;BME280;7185;51.854;6.622;2024-02-04T05:41:54;101855.63;;;15.54;71.94
14204;BME280;7185;51.854;6.622;2024-02-04T05:44:27;101858.25;;;15.57;71.70
14204;BME280;7185;51.854;6.622;2024-02-04T05:46:59;101861.78;;;15.54;71.84
14204;BME280;7185;51.854;6.622;2024-02-04T05:49:31;101847.50;;;15.65;71.77
14204;BME280;7185;51.854;6.622;2024-02-04T05:52:03;101849.25;;;15.66;71.49
14204;BME280;7185;51.854;6.622;2024-02-04T05:54:37;101849.41;;;15.56;71.78
14204;BME280;7185;51.854;6.622;2024-02-04T05:57:10;101845.03;;;15.57;71.42
14204;BME280;7185;51.854;6.622;2024-02-04T05:59:44;101841.63;;;15.50;72.11
14204;BME280;7185;51.854;6.622;2024-02-04T06:02:18;101834.31;;;15.16;73.64
14204;BME280;7185;51.854;6.622;2024-02-04T06:04:49;101839.31;;;15.32;73.62
14204;BME280;7185;51.854;6.622;2024-02-04T06:07:21;101847.84;;;15.48;72.80
14204;BME280;7185;51.854;6.622;2024-02-04T06:09:53;101839.22;;;15.38;73.96
14204;BME280;7185;51.854;6.622;2024-02-04T06:12:26;101838.81;;;15.59;73.06
14204;BME280;7185;51.854;6.622;2024-02-04T06:14:59;101837.66;;;15.73;72.07
14204;BME280;7185;51.854;6.622;2024-02-04T06:17:31;101832.59;;;15.62;72.82
14204;BME280;7185;51.854;6.622;2024-02-04T06:20:03;101833.69;;;15.50;73.14
14204;BME280;7185;51.854;6.622;2024-02-04T06:22:36;101835.66;;;15.37;73.86
14204;BME280;7185;51.854;6.622;2024-02-04T06:25:08;101828.34;;;15.53;73.28
14204;BME280;7185;51.854;6.622;2024-02-04T06:27:39;101839.00;;;15.47;73.28
14204;BME280;7185;51.854;6.622;2024-02-04T06:30:13;101836.38;;;15.49;73.92
14204;BME280;7185;51.854;6.622;2024-02-04T06:32:47;101848.69;;;15.50;73.63
14204;BME280;7185;51.854;6.622;2024-02-04T06:35:19;101849.31;;;15.62;73.00
14204;BME280;7185;51.854;6.622;2024-02-04T06:37:50;101842.22;;;15.65;72.72
14204;BME280;7185;51.854;6.622;2024-02-04T06:40:22;101853.03;;;15.51;73.70
14204;BME280;7185;51.854;6.622;2024-02-04T06:42:54;101842.38;;;15.55;73.00
14204;BME280;7185;51.854;6.622;2024-02-04T06:45:27;101830.78;;;15.64;72.95
14204;BME280;7185;51.854;6.622;2024-02-04T06:47:59;101826.34;;;15.18;74.13
14204;BME280;7185;51.854;6.622;2024-02-04T06:50:31;101820.63;;;15.41;73.51
14204;BME280;7185;51.854;6.622;2024-02-04T06:53:03;101813.19;;;15.61;72.42
14204;BME280;7185;51.854;6.622;2024-02-04T06:55:35;101804.13;;;15.29;73.61
14204;BME280;7185;51.854;6.622;2024-02-04T06:58:07;101818.91;;;15.40;72.82
14204;BME280;7185;51.854;6.622;2024-02-04T07:00:40;101816.31;;;15.37;73.21
14204;BME280;7185;51.854;6.622;2024-02-04T07:03:12;101834.00;;;15.33;73.46
14204;BME280;7185;51.854;6.622;2024-02-04T07:05:44;101826.44;;;15.60;72.45
14204;BME280;7185;51.854;6.622;2024-02-04T07:08:17;101837.22;;;15.49;72.63
14204;BME280;7185;51.854;6.622;2024-02-04T07:10:49;101844.53;;;15.35;73.42
14204;BME280;7185;51.854;6.622;2024-02-04T07:13:21;101840.94;;;15.39;73.16
14204;BME280;7185;51.854;6.622;2024-02-04T07:15:55;101856.22;;;15.21;73.88
14204;BME280;7185;51.854;6.622;2024-02-04T07:18:26;101844.41;;;15.41;73.32
14204;BME280;7185;51.854;6.622;2024-02-04T07:20:58;101842.69;;;15.40;73.20
14204;BME280;7185;51.854;6.622;2024-02-04T07:23:29;101836.38;;;15.47;73.24
14204;BME280;7185;51.854;6.622;2024-02-04T07:26:01;101840.84;;;15.45;73.12
14204;BME280;7185;51.854;6.622;2024-02-04T07:28:33;101827.16;;;15.21;74.67
14204;BME280;7185;51.854;6.622;2024-02-04T07:31:06;101823.22;;;15.44;73.58
14204;BME280;7185;51.854;6.622;2024-02-04T07:33:37;101816.59;;;15.68;73.05
14204;BME280;7185;51.854;6.622;2024-02-04T07:36:10;101825.72;;;15.53;73.52
14204;BME280;7185;51.854;6.622;2024-02-04T07:38:42;101830.66;;;15.23;74.64
14204;BME280;7185;51.854;6.622;2024-02-04T07:41:14;101834.34;;;15.13;74.80
14204;BME280;7185;51.854;6.622;2024-02-04T07:43:47;101832.72;;;15.54;73.13
14204;BME280;7185;51.854;6.622;2024-02-04T07:46:20;101810.59;;;15.60;73.16
14204;BME280;7185;51.854;6.622;2024-02-04T07:48:52;101812.72;;;15.41;73.49
14204;BME280;7185;51.854;6.622;2024-02-04T07:51:24;101799.28;;;15.53;73.35
14204;BME280;7185;51.854;6.622;2024-02-04T07:53:56;101825.25;;;15.29;75.29
14204;BME280;7185;51.854;6.622;2024-02-04T07:56:27;101832.94;;;14.93;76.93
14204;BME280;7185;51.854;6.622;2024-02-04T07:58:59;101824.78;;;15.07;77.19
14204;BME280;7185;51.854;6.622;2024-02-04T08:01:32;101824.63;;;15.15;76.17
14204;BME280;7185;51.854;6.622;2024-02-04T08:04:04;101833.63;;;15.53;74.92
14204;BME280;7185;51.854;6.622;2024-02-04T08:06:39;101828.34;;;15.53;73.94
14204;BME280;7185;51.854;6.622;2024-02-04T08:09:10;101811.06;;;15.34;75.30
14204;BME280;7185;51.854;6.622;2024-02-04T08:11:42;101813.41;;;15.02;76.20
14204;BME280;7185;51.854;6.622;2024-02-04T08:14:14;101824.63;;;15.15;75.37
14204;BME280;7185;51.854;6.622;2024-02-04T08:16:49;101819.31;;;15.17;75.17
14204;BME280;7185;51.854;6.622;2024-02-04T08:19:20;101816.16;;;15.46;74.53
14204;BME280;7185;51.854;6.622;2024-02-04T08:21:52;101809.09;;;15.46;73.81
14204;BME280;7185;51.854;6.622;2024-02-04T08:24:24;101803.59;;;15.57;73.24
14204;BME280;7185;51.854;6.622;2024-02-04T08:26:55;101805.03;;;15.28;74.82
14204;BME280;7185;51.854;6.622;2024-02-04T08:29:27;101785.13;;;15.56;73.44
14204;BME280;7185;51.854;6.622;2024-02-04T08:32:00;101789.94;;;15.34;74.07
14204;BME280;7185;51.854;6.622;2024-02-04T08:34:33;101795.63;;;15.12;74.60
14204;BME280;7185;51.854;6.622;2024-02-04T08:37:05;101791.06;;;15.20;73.34
14204;BME280;7185;51.854;6.622;2024-02-04T08:39:37;101800.25;;;15.48;72.91
14204;BME280;7185;51.854;6.622;2024-02-04T08:42:08;101797.44;;;15.57;72.67
14204;BME280;7185;51.854;6.622;2024-02-04T08:44:40;101811.00;;;15.40;72.38
14204;BME280;7185;51.854;6.622;2024-02-04T08:47:14;101818.34;;;15.22;73.36
14204;BME280;7185;51.854;6.622;2024-02-04T08:49:47;101818.56;;;15.10;73.48
14204;BME280;7185;51.854;6.622;2024-02-04T08:52:19;101816.16;;;15.46;71.52
14204;BME280;7185;51.854;6.622;2024-02-04T08:54:50;101799.38;;;15.49;70.89
14204;BME280;7185;51.854;6.622;2024-02-04T08:57:23;101818.09;;;15.35;71.48
14204;BME280;7185;51.854;6.622;2024-02-04T08:59:54;101804.66;;;15.49;70.85
14204;BME280;7185;51.854;6.622;2024-02-04T09:02:27;101815.34;;;15.42;70.93
14204;BME280;7185;51.854;6.622;2024-02-04T09:04:59;101806.81;;;15.28;71.21
14204;BME280;7185;51.854;6.622;2024-02-04T09:07:31;101808.56;;;15.73;70.01
14204;BME280;7185;51.854;6.622;2024-02-04T09:10:03;101806.81;;;15.28;71.54
14204;BME280;7185;51.854;6.622;2024-02-04T09:12:34;101808.88;;;16.03;68.16
14204;BME280;7185;51.854;6.622;2024-02-04T09:15:07;101809.47;;;16.53;66.12
14204;BME280;7185;51.854;6.622;2024-02-04T09:17:40;101806.59;;;15.84;68.10
14204;BME280;7185;51.854;6.622;2024-02-04T09:20:12;101799.50;;;15.41;70.31
14204;BME280;7185;51.854;6.622;2024-02-04T09:22:45;101810.88;;;15.46;70.27
14204;BME280;7185;51.854;6.622;2024-02-04T09:25:20;101812.50;;;15.53;70.65
14204;BME280;7185;51.854;6.622;2024-02-04T09:27:51;101823.97;;;15.04;72.64
14204;BME280;7185;51.854;6.622;2024-02-04T09:30:23;101828.75;;;15.32;72.08
14204;BME280;7185;51.854;6.622;2024-02-04T09:32:56;101828.31;;;15.06;72.83
14204;BME280;7185;51.854;6.622;2024-02-04T09:35:28;101818.19;;;15.32;72.41
14204;BME280;7185;51.854;6.622;2024-02-04T09:37:59;101818.31;;;15.25;72.64
14204;BME280;7185;51.854;6.622;2024-02-04T09:40:31;101823.88;;;15.55;71.62
14204;BME280;7185;51.854;6.622;2024-02-04T09:43:04;101819.94;;;15.33;72.11
14204;BME280;7185;51.854;6.622;2024-02-04T09:45:38;101830.69;;;15.22;72.47
14204;BME280;7185;51.854;6.622;2024-02-04T09:48:13;101818.56;;;15.10;73.00
14204;BME280;7185;51.854;6.622;2024-02-04T09:50:46;101813.22;;;15.13;73.15
14204;BME280;7185;51.854;6.622;2024-02-04T09:53:21;101813.03;;;15.25;72.40
14204;BME280;7185;51.854;6.622;2024-02-04T09:55:57;101813.22;;;15.13;72.73
14204;BME280;7185;51.854;6.622;2024-02-04T09:58:30;101798.88;;;15.26;72.35
14204;BME280;7185;51.854;6.622;2024-02-04T10:01:02;101807.38;;;15.44;72.20
14204;BME280;7185;51.854;6.622;2024-02-04T10:03:35;101804.47;;;15.11;73.47
14204;BME280;7185;51.854;6.622;2024-02-04T10:06:07;101811.84;;;15.40;72.29
14204;BME280;7185;51.854;6.622;2024-02-04T10:08:39;101811.28;;;15.23;73.75
14204;BME280;7185;51.854;6.622;2024-02-04T10:11:10;101817.28;;;15.31;72.38
14204;BME280;7185;51.854;6.622;2024-02-04T10:13:44;101821.38;;;15.49;72.70
14204;BME280;7185;51.854;6.622;2024-02-04T10:16:16;101812.00;;;15.31;73.86
14204;BME280;7185;51.854;6.622;2024-02-04T10:18:50;101811.06;;;15.34;73.61
14204;BME280;7185;51.854;6.622;2024-02-04T10:21:24;101809.25;;;15.37;73.16
14204;BME280;7185;51.854;6.622;2024-02-04T10:23:55;101811.00;;;15.40;73.45
14204;BME280;7185;51.854;6.622;2024-02-04T10:26:28;101803.25;;;15.29;74.24
14204;BME280;7185;51.854;6.622;2024-02-04T10:29:02;101805.28;;;15.14;74.27
14204;BME280;7185;51.854;6.622;2024-02-04T10:31:33;101807.53;;;15.35;74.64
14204;BME280;7185;51.854;6.622;2024-02-04T10:34:07;101798.03;;;15.70;73.21
14204;BME280;7185;51.854;6.622;2024-02-04T10:36:39;101801.06;;;15.51;74.23
14204;BME280;7185;51.854;6.622;2024-02-04T10:39:11;101791.84;;;15.27;74.55
14204;BME280;7185;51.854;6.622;2024-02-04T10:41:48;101796.06;;;15.81;73.37
14204;BME280;7185;51.854;6.622;2024-02-04T10:44:22;101804.94;;;15.33;74.60
14204;BME280;7185;51.854;6.622;2024-02-04T10:46:55;101797.81;;;15.37;74.43
14204;BME280;7185;51.854;6.622;2024-02-04T10:49:30;101790.16;;;15.68;73.93
14204;BME280;7185;51.854;6.622;2024-02-04T10:52:06;101783.75;;;15.80;73.37
14204;BME280;7185;51.854;6.622;2024-02-04T10:54:39;101792.75;;;15.70;73.15
14204;BME280;7185;51.854;6.622;2024-02-04T10:57:13;101798.09;;;15.68;72.91
14204;BME280;7185;51.854;6.622;2024-02-04T10:59:46;101789.50;;;16.01;71.77
14204;BME280;7185;51.854;6.622;2024-02-04T11:02:19;101791.84;;;15.71;73.30
14204;BME280;7185;51.854;6.622;2024-02-04T11:04:53;101790.97;;;15.72;72.70
14204;BME280;7185;51.854;6.622;2024-02-04T11:07:26;101788.63;;;16.00;71.88
14204;BME280;7185;51.854;6.622;2024-02-04T11:10:01;101790.69;;;16.27;70.90
14204;BME280;7185;51.854;6.622;2024-02-04T11:12:35;101782.25;;;15.67;72.79
14204;BME280;7185;51.854;6.622;2024-02-04T11:15:10;101781.22;;;15.74;72.34
14204;BME280;7185;51.854;6.622;2024-02-04T11:21:17;101777.53;;;16.23;70.54
14204;BME280;7185;51.854;6.622;2024-02-04T11:23:58;101780.69;;;16.00;70.75
14204;BME280;7185;51.854;6.622;2024-02-04T11:26:34;101761.63;;;16.25;70.21
14204;BME280;7185;51.854;6.622;2024-02-04T11:29:10;101769.25;;;16.00;70.37
14204;BME280;7185;51.854;6.622;2024-02-04T11:31:41;101768.25;;;15.61;71.79
14204;BME280;7185;51.854;6.622;2024-02-04T11:34:13;101768.47;;;15.95;70.40
14204;BME280;7185;51.854;6.622;2024-02-04T11:36:46;101773.63;;;16.01;70.13
14204;BME280;7185;51.854;6.622;2024-02-04T11:39:18;101756.06;;;15.54;70.29
14204;BME280;7185;51.854;6.622;2024-02-04T11:41:52;101759.00;;;15.84;69.40
14204;BME280;7185;51.854;6.622;2024-02-04T11:44:26;101759.53;;;15.56;69.62
14204;BME280;7185;51.854;6.622;2024-02-04T11:46:59;101755.88;;;15.64;70.72
14204;BME280;7185;51.854;6.622;2024-02-04T11:49:31;101760.13;;;16.13;68.84
14204;BME280;7185;51.854;6.622;2024-02-04T11:52:05;101767.91;;;16.21;68.17
14204;BME280;7185;51.854;6.622;2024-02-04T11:54:36;101760.56;;;15.49;71.89
14204;BME280;7185;51.854;6.622;2024-02-04T11:57:08;101754.53;;;15.44;72.63
14204;BME280;7185;51.854;6.622;2024-02-04T11:59:40;101764.97;;;15.50;74.33
14204;BME280;7185;51.854;6.622;2024-02-04T12:02:16;101759.94;;;15.38;75.33
14204;BME280;7185;51.854;6.622;2024-02-04T12:04:48;101765.19;;;15.39;75.18
14204;BME280;7185;51.854;6.622;2024-02-04T12:07:21;101751.66;;;15.11;76.84
14204;BME280;7185;51.854;6.622;2024-02-04T12:09:53;101751.66;;;15.11;77.60
14204;BME280;7185;51.854;6.622;2024-02-04T12:12:25;101752.25;;;15.24;77.06
14204;BME280;7185;51.854;6.622;2024-02-04T12:14:57;101753.88;;;15.31;77.45
14204;BME280;7185;51.854;6.622;2024-02-04T12:17:29;101744.00;;;15.41;77.00
14204;BME280;7185;51.854;6.622;2024-02-04T12:20:01;101730.19;;;15.69;76.48
14204;BME280;7185;51.854;6.622;2024-02-04T12:22:36;101718.00;;;15.19;77.85
14204;BME280;7185;51.854;6.622;2024-02-04T12:25:08;101712.84;;;15.57;77.31
14204;BME280;7185;51.854;6.622;2024-02-04T12:27:40;101721.13;;;15.40;77.21
14204;BME280;7185;51.854;6.622;2024-02-04T12:30:13;101723.66;;;15.46;77.85
14204;BME280;7185;51.854;6.622;2024-02-04T12:32:55;101720.28;;;15.80;76.32
14204;BME280;7185;51.854;6.622;2024-02-04T12:35:28;101718.94;;;16.03;75.45
14204;BME280;7185;51.854;6.622;2024-02-04T12:38:01;101712.41;;;15.77;76.40
14204;BME280;7185;51.854;6.622;2024-02-04T12:40:33;101709.59;;;15.86;76.39
14204;BME280;7185;51.854;6.622;2024-02-04T12:43:05;101711.50;;;15.78;77.21
14204;BME280;7185;51.854;6.622;2024-02-04T12:45:37;101706.34;;;15.72;77.57
14204;BME280;7185;51.854;6.622;2024-02-04T12:48:08;101698.94;;;15.89;76.58
14204;BME280;7185;51.854;6.622;2024-02-04T12:50:40;101699.19;;;15.77;77.33
14204;BME280;7185;51.854;6.622;2024-02-04T12:53:13;101700.53;;;15.97;77.03
14204;BME280;7185;51.854;6.622;2024-02-04T12:55:45;101698.47;;;15.69;78.41
14204;BME280;7185;51.854;6.622;2024-02-04T12:58:17;101699.25;;;15.74;78.29
14204;BME280;7185;51.854;6.622;2024-02-04T13:00:59;101692.88;;;15.42;80.39
14204;BME280;7185;51.854;6.622;2024-02-04T13:03:31;101694.50;;;15.49;80.76
14204;BME280;7185;51.854;6.622;2024-02-04T13:06:04;101700.31;;;15.24;81.37
14204;BME280;7185;51.854;6.622;2024-02-04T13:08:37;101716.84;;;15.34;80.99
14204;BME280;7185;51.854;6.622;2024-02-04T13:11:08;101718.75;;;15.26;81.52
14204;BME280;7185;51.854;6.622;2024-02-04T13:13:40;101717.94;;;15.22;81.51
14204;BME280;7185;51.854;6.622;2024-02-04T13:16:12;101718.59;;;15.34;81.08
14204;BME280;7185;51.854;6.622;2024-02-04T13:18:43;101733.69;;;15.28;80.84
14204;BME280;7185;51.854;6.622;2024-02-04T13:21:15;101708.69;;;15.45;80.84
14204;BME280;7185;51.854;6.622;2024-02-04T13:23:51;101704.09;;;15.55;79.75
14204;BME280;7185;51.854;6.622;2024-02-04T13:26:23;101703.56;;;15.37;80.09
14204;BME280;7185;51.854;6.622;2024-02-04T13:28:55;101690.00;;;15.53;79.41
14204;BME280;7185;51.854;6.622;2024-02-04T13:31:26;101698.47;;;15.26;79.97